Time;durP1;ratioP1;P1;durP2;ratioP2;P2;SDS_P1;SDS_P2;PMS_P1;PMS_P2;Temp;Humidity;BMP_temperature;BMP_pressure;BME280_temperature;BME280_humidity;BME280_pressure;Samples;Min_cycle;Max_cycle;Signal;HPM_P1;HPM_P2
2022/11/11 00:02:23;;;;;;;3;2.6;;;;;;;;;;;;;
2022/11/11 00:04:54;;;;;;;3.7;2.6;;;;;;;;;;;;;
2022/11/11 00:07:21;;;;;;;3.7;3.1;;;;;;;;;;;;;
2022/11/11 00:09:46;;;;;;;2.8;2.3;;;;;;;;;;;;;
2022/11/11 00:12:14;;;;;;;2.5;2.1;;;;;;;;;;;;;
2022/11/11 00:14:47;;;;;;;3.8;2.7;;;;;;;;;;;;;
2022/11/11 00:25:06;;;;;;;2.9;2.4;;;;;;;;;;;;;
2022/11/11 00:27:16;;;;;;;3.5;2.4;;;;;;;;;;;;;
2022/11/11 00:29:40;;;;;;;3.3;2.7;;;;;;;;;;;;;
2022/11/11 00:34:30;;;;;;;3.5;2.4;;;;;;;;;;;;;
2022/11/11 00:36:58;;;;;;;3.6;2.5;;;;;;;;;;;;;
2022/11/11 00:39:23;;;;;;;3.1;2.6;;;;;;;;;;;;;
2022/11/11 00:41:48;;;;;;;3.3;2.4;;;;;;;;;;;;;
2022/11/11 00:44:13;;;;;;;3.4;2.8;;;;;;;;;;;;;
2022/11/11 00:51:28;;;;;;;2.1;1.9;;;;;;;;;;;;;
2022/11/11 00:53:55;;;;;;;2.3;1.9;;;;;;;;;;;;;
2022/11/11 00:56:20;;;;;;;2.3;1.7;;;;;;;;;;;;;
2022/11/11 00:58:46;;;;;;;2.3;2;;;;;;;;;;;;;
2022/11/11 01:01:11;;;;;;;2.3;2.1;;;;;;;;;;;;;
2022/11/11 01:03:37;;;;;;;2.8;2.1;;;;;;;;;;;;;
2022/11/11 01:06:05;;;;;;;3.5;2;;;;;;;;;;;;;
2022/11/11 01:08:27;;;;;;;2.3;2.1;;;;;;;;;;;;;
2022/11/11 01:10:52;;;;;;;2.5;2.2;;;;;;;;;;;;;
2022/11/11 01:13:18;;;;;;;3.1;2.1;;;;;;;;;;;;;
2022/11/11 01:15:44;;;;;;;3.2;2.2;;;;;;;;;;;;;
2022/11/11 01:18:09;;;;;;;2.4;2.2;;;;;;;;;;;;;
2022/11/11 01:20:36;;;;;;;2.8;2.2;;;;;;;;;;;;;
2022/11/11 01:22:59;;;;;;;2.9;2;;;;;;;;;;;;;
2022/11/11 01:25:27;;;;;;;2.4;2.2;;;;;;;;;;;;;
2022/11/11 01:27:52;;;;;;;3.5;2.1;;;;;;;;;;;;;
2022/11/11 01:30:19;;;;;;;2.8;2.4;;;;;;;;;;;;;
2022/11/11 01:32:44;;;;;;;3.6;2.4;;;;;;;;;;;;;
2022/11/11 01:35:12;;;;;;;3.8;2.8;;;;;;;;;;;;;
2022/11/11 01:37:37;;;;;;;3.5;2.7;;;;;;;;;;;;;
2022/11/11 01:40:02;;;;;;;3.7;2.9;;;;;;;;;;;;;
2022/11/11 01:42:27;;;;;;;3.7;2.8;;;;;;;;;;;;;
2022/11/11 01:44:52;;;;;;;3.9;2.3;;;;;;;;;;;;;
2022/11/11 01:47:18;;;;;;;3.5;2.7;;;;;;;;;;;;;
2022/11/11 01:49:43;;;;;;;3.2;2.5;;;;;;;;;;;;;
2022/11/11 01:52:08;;;;;;;2.8;2.4;;;;;;;;;;;;;
2022/11/11 01:54:33;;;;;;;3.7;2.4;;;;;;;;;;;;;
2022/11/11 01:56:58;;;;;;;2.1;1.9;;;;;;;;;;;;;
2022/11/11 01:59:24;;;;;;;3.2;2.2;;;;;;;;;;;;;
2022/11/11 02:01:49;;;;;;;4;2.3;;;;;;;;;;;;;
2022/11/11 02:06:40;;;;;;;2.6;2.4;;;;;;;;;;;;;
2022/11/11 02:09:05;;;;;;;2.8;2.1;;;;;;;;;;;;;
2022/11/11 02:16:20;;;;;;;1.8;1.7;;;;;;;;;;;;;
2022/11/11 02:18:46;;;;;;;2.6;2;;;;;;;;;;;;;
2022/11/11 02:21:11;;;;;;;2.5;1.9;;;;;;;;;;;;;
2022/11/11 02:23:36;;;;;;;2;1.8;;;;;;;;;;;;;
2022/11/11 02:26:02;;;;;;;2;1.6;;;;;;;;;;;;;
2022/11/11 02:28:27;;;;;;;1.8;1.6;;;;;;;;;;;;;
2022/11/11 02:30:53;;;;;;;2.6;1.7;;;;;;;;;;;;;
2022/11/11 02:33:18;;;;;;;2;1.8;;;;;;;;;;;;;
2022/11/11 02:36:04;;;;;;;2;1.6;;;;;;;;;;;;;
2022/11/11 02:38:28;;;;;;;2.8;1.9;;;;;;;;;;;;;
2022/11/11 02:43:18;;;;;;;3.7;1.9;;;;;;;;;;;;;
2022/11/11 02:45:47;;;;;;;1.6;1.5;;;;;;;;;;;;;
2022/11/11 02:48:12;;;;;;;2.4;1.8;;;;;;;;;;;;;
2022/11/11 02:50:37;;;;;;;1.8;1.7;;;;;;;;;;;;;
2022/11/11 02:53:02;;;;;;;2.7;2.4;;;;;;;;;;;;;
2022/11/11 02:55:29;;;;;;;3.5;2.4;;;;;;;;;;;;;
2022/11/11 02:57:54;;;;;;;2.9;2.6;;;;;;;;;;;;;
2022/11/11 03:00:21;;;;;;;2.4;2.1;;;;;;;;;;;;;
2022/11/11 03:02:46;;;;;;;2.7;2.1;;;;;;;;;;;;;
2022/11/11 03:05:13;;;;;;;2.3;2.1;;;;;;;;;;;;;
2022/11/11 03:07:38;;;;;;;2.4;1.9;;;;;;;;;;;;;
2022/11/11 03:10:07;;;;;;;2.2;2;;;;;;;;;;;;;
2022/11/11 03:12:36;;;;;;;2.7;2.2;;;;;;;;;;;;;
2022/11/11 03:15:01;;;;;;;2.9;2.4;;;;;;;;;;;;;
2022/11/11 03:17:40;;;;;;;2.1;1.9;;;;;;;;;;;;;
2022/11/11 03:21:03;;;;;;;2.3;2;;;;;;;;;;;;;
2022/11/11 03:22:21;;;;;;;3.1;1.8;;;;;;;;;;;;;
2022/11/11 03:27:11;;;;;;;2.6;1.8;;;;;;;;;;;;;
2022/11/11 03:29:38;;;;;;;2.1;1.8;;;;;;;;;;;;;
2022/11/11 03:32:03;;;;;;;4.1;1.9;;;;;;;;;;;;;
2022/11/11 03:34:30;;;;;;;2.7;2;;;;;;;;;;;;;
2022/11/11 03:39:20;;;;;;;2.3;1.9;;;;;;;;;;;;;
2022/11/11 03:41:47;;;;;;;2;1.8;;;;;;;;;;;;;
2022/11/11 03:44:12;;;;;;;1.9;1.8;;;;;;;;;;;;;
2022/11/11 03:46:38;;;;;;;4.1;3.3;;;;;;;;;;;;;
2022/11/11 03:49:03;;;;;;;2.3;2.1;;;;;;;;;;;;;
2022/11/11 03:51:30;;;;;;;2.6;2.4;;;;;;;;;;;;;
2022/11/11 03:53:55;;;;;;;2.5;2;;;;;;;;;;;;;
2022/11/11 03:56:21;;;;;;;2.3;2.1;;;;;;;;;;;;;
2022/11/11 03:58:46;;;;;;;1.7;1.6;;;;;;;;;;;;;
2022/11/11 04:12:28;;;;;;;2.1;1.9;;;;;;;4.21;99.88184;952.0299;;;;
2022/11/11 04:17:28;;;;;;;2.2;2;;;;;;;4.02;99.73828;952.1077;;;;
2022/11/11 04:22:27;;;;;;;1.8;1.7;;;;;;;3.88;100;952.0881;;;;
2022/11/11 04:27:20;;;;;;;2.6;2.2;;;;;;;3.84;100;952.0744;;;;
2022/11/11 04:29:46;;;;;;;2.4;1.8;;;;;;;3.93;100;952.0323;;;;
2022/11/11 04:34:39;;;;;;;2.3;1.9;;;;;;;3.77;100;952.0842;;;;
2022/11/11 04:37:07;;;;;;;2.6;2.1;;;;;;;3.77;100;952.0714;;;;
2022/11/11 04:41:57;;;;;;;2.6;2.2;;;;;;;3.82;100;952.0402;;;;
2022/11/11 04:46:48;;;;;;;4.5;2.6;;;;;;;3.96;100;952.0182;;;;
2022/11/11 04:49:13;;;;;;;3.3;2.5;;;;;;;4.04;100;952.1331;;;;
2022/11/11 04:54:06;;;;;;;2.6;1.7;;;;;;;4.1;100;952.1861;;;;
2022/11/11 04:56:50;;;;;;;1.9;1.7;;;;;;;4;100;952.0943;;;;
2022/11/11 04:59:21;;;;;;;3.3;1.7;;;;;;;4.06;100;952.1563;;;;
2022/11/11 05:03:52;;;;;;;2.6;1.9;;;;;;;3.99;100;952.1442;;;;
2022/11/11 05:08:57;;;;;;;5.6;2.6;;;;;;;4.01;100;952.1044;;;;
2022/11/11 05:11:07;;;;;;;4.5;2.7;;;;;;;3.99;100;952.03;;;;
2022/11/11 05:23:18;;;;;;;5.8;3.7;;;;;;;3.83;100;951.909;;;;
2022/11/11 05:25:44;;;;;;;5.3;3.5;;;;;;;3.76;100;951.8495;;;;
2022/11/11 05:28:09;;;;;;;4;3;;;;;;;3.55;100;951.8017;;;;
2022/11/11 05:30:35;;;;;;;5.3;3.5;;;;;;;3.63;100;951.8098;;;;
2022/11/11 05:33:00;;;;;;;4.3;3.2;;;;;;;3.57;100;951.7815;;;;
2022/11/11 05:35:26;;;;;;;3.5;2.9;;;;;;;3.65;100;951.7723;;;;
2022/11/11 05:38:20;;;;;;;4.1;2.4;;;;;;;3.68;100;951.7431;;;;
2022/11/11 05:40:20;;;;;;;2.1;1.8;;;;;;;3.57;100;951.6794;;;;
2022/11/11 05:42:52;;;;;;;4;2.5;;;;;;;3.53;100;951.7715;;;;
2022/11/11 05:45:21;;;;;;;3.7;3.1;;;;;;;3.59;100;951.7764;;;;
2022/11/11 05:47:46;;;;;;;3.5;2.6;;;;;;;3.63;100;951.7745;;;;
2022/11/11 05:50:11;;;;;;;3.4;2.7;;;;;;;3.75;100;951.8571;;;;
2022/11/11 05:52:37;;;;;;;3.3;2.5;;;;;;;3.84;100;951.8677;;;;
2022/11/11 05:55:02;;;;;;;4.2;3;;;;;;;3.86;100;951.8395;;;;
2022/11/11 05:57:28;;;;;;;3.5;3.1;;;;;;;3.78;100;951.8702;;;;
2022/11/11 05:59:53;;;;;;;3.3;2.6;;;;;;;3.76;100;951.9081;;;;
2022/11/11 06:02:20;;;;;;;3.6;2.4;;;;;;;3.85;100;951.9777;;;;
2022/11/11 06:04:43;;;;;;;3.9;2.7;;;;;;;4.05;100;952.0022;;;;
2022/11/11 06:07:12;;;;;;;3.7;2.9;;;;;;;4.09;100;952.0341;;;;
2022/11/11 06:09:37;;;;;;;5;3.5;;;;;;;4.02;100;952.1206;;;;
2022/11/11 06:12:02;;;;;;;4.1;3.1;;;;;;;4.04;100;952.2224;;;;
2022/11/11 06:14:27;;;;;;;4.2;3.5;;;;;;;4.04;100;952.2141;;;;
2022/11/11 06:16:56;;;;;;;5.4;3.6;;;;;;;4.12;99.57031;952.3089;;;;
2022/11/11 06:19:21;;;;;;;5.3;3.7;;;;;;;4.14;99.38281;952.3412;;;;
2022/11/11 06:22:00;;;;;;;8.8;4.6;;;;;;;4.18;99.26953;952.3901;;;;
2022/11/11 06:24:12;;;;;;;10.7;5.6;;;;;;;4.24;99.70996;952.4977;;;;
2022/11/11 06:26:40;;;;;;;4.3;2.7;;;;;;;4.43;99.56543;952.4592;;;;
2022/11/11 06:29:05;;;;;;;9.8;6;;;;;;;4.5;98.76953;952.4889;;;;
2022/11/11 06:31:33;;;;;;;8;4.9;;;;;;;4.51;97.27637;952.5115;;;;
2022/11/11 06:34:02;;;;;;;7.1;4.4;;;;;;;4.62;96.89355;952.5278;;;;
2022/11/11 06:36:28;;;;;;;8.1;4.7;;;;;;;4.66;96.7002;952.502;;;;
2022/11/11 06:38:55;;;;;;;9.6;4.5;;;;;;;4.65;96.21191;952.5595;;;;
2022/11/11 06:41:23;;;;;;;5.4;2.8;;;;;;;4.67;96.70313;952.4874;;;;
2022/11/11 06:43:51;;;;;;;7.1;4;;;;;;;4.81;96.12305;952.5385;;;;
2022/11/11 06:46:21;;;;;;;9.4;4.5;;;;;;;4.82;94.98926;952.55;;;;
2022/11/11 06:48:46;;;;;;;7.2;3.9;;;;;;;4.75;95.25684;952.666;;;;
2022/11/11 06:51:14;;;;;;;5.7;3.5;;;;;;;4.82;95.37207;952.7299;;;;
2022/11/11 06:53:39;;;;;;;6.7;3.2;;;;;;;4.73;95.72363;952.7573;;;;
2022/11/11 06:56:04;;;;;;;3.4;2.8;;;;;;;4.61;97.28516;952.8295;;;;
2022/11/11 06:58:29;;;;;;;7.8;4.3;;;;;;;4.58;96.72754;952.8664;;;;
2022/11/11 07:00:58;;;;;;;5.5;3.8;;;;;;;4.54;96.66309;952.9163;;;;
2022/11/11 07:03:23;;;;;;;4.5;3.7;;;;;;;4.56;96.95996;952.822;;;;
2022/11/11 07:05:51;;;;;;;6.5;4.1;;;;;;;4.93;97.1543;952.847;;;;
2022/11/11 07:08:16;;;;;;;7.8;4.5;;;;;;;5.34;96.02832;952.8317;;;;
2022/11/11 07:10:46;;;;;;;4.4;3.5;;;;;;;5.78;93.30664;952.7969;;;;
2022/11/11 07:13:11;;;;;;;5;3.2;;;;;;;6.25;90.66211;952.8125;;;;
2022/11/11 07:15:36;;;;;;;4.9;3.5;;;;;;;6.44;88.24707;952.9461;;;;
2022/11/11 07:18:01;;;;;;;8.8;3.9;;;;;;;6.68;87.4502;952.9274;;;;
2022/11/11 07:20:26;;;;;;;6.4;3.9;;;;;;;6.9;85.83008;952.972;;;;
2022/11/11 07:22:58;;;;;;;6.1;3.6;;;;;;;7.1;84.93945;952.9854;;;;
2022/11/11 07:25:28;;;;;;;6.4;4.1;;;;;;;7.2;84.16797;952.9941;;;;
2022/11/11 07:27:53;;;;;;;4.4;3;;;;;;;7.41;83.68652;953.0097;;;;
2022/11/11 07:30:24;;;;;;;3.4;2.6;;;;;;;7.48;83.18945;952.978;;;;
2022/11/11 07:32:52;;;;;;;3;2.7;;;;;;;7.6;82.53516;953.0497;;;;
2022/11/11 07:35:17;;;;;;;3.1;1.9;;;;;;;7.42;82.91992;953.0848;;;;
2022/11/11 07:37:43;;;;;;;4.5;2.9;;;;;;;7.4;83.50391;953.128;;;;
2022/11/11 07:40:08;;;;;;;5.3;2.2;;;;;;;7.22;84.20508;953.149;;;;
2022/11/11 07:42:34;;;;;;;4.5;2.5;;;;;;;7.32;84.70215;953.1316;;;;
2022/11/11 07:44:59;;;;;;;6.6;4.1;;;;;;;7.46;84.64941;953.108;;;;
2022/11/11 07:47:27;;;;;;;11.1;6.8;;;;;;;7.74;83.66113;953.1348;;;;
2022/11/11 07:49:52;;;;;;;17.1;9.8;;;;;;;7.91;82.72852;953.1146;;;;
2022/11/11 07:52:22;;;;;;;7.8;5.5;;;;;;;8.14;81.93359;953.0875;;;;
2022/11/11 07:54:45;;;;;;;7.6;4.3;;;;;;;8.19;81.45508;953.0535;;;;
2022/11/11 07:57:15;;;;;;;3.3;2.4;;;;;;;8.23;81.01953;953.0828;;;;
2022/11/11 07:59:42;;;;;;;3.9;2.5;;;;;;;8.35;81.15625;953.0995;;;;
2022/11/11 08:02:07;;;;;;;4.7;3;;;;;;;8.55;83.0791;953.0468;;;;
2022/11/11 08:04:33;;;;;;;8.5;7.3;;;;;;;8.53;81.63184;953.0673;;;;
2022/11/11 08:06:58;;;;;;;4.2;3.4;;;;;;;8.56;80.10254;953.032;;;;
2022/11/11 08:09:26;;;;;;;3.6;2.9;;;;;;;8.59;80.79004;953.1022;;;;
2022/11/11 08:14:17;;;;;;;3;2.1;;;;;;;8.77;80.10938;953.0179;;;;
2022/11/11 08:16:42;;;;;;;3.5;2.1;;;;;;;8.87;80.81055;953.1016;;;;
2022/11/11 08:19:07;;;;;;;4.9;2.6;;;;;;;8.98;79.46484;953.0758;;;;
2022/11/11 08:21:32;;;;;;;4;2.4;;;;;;;8.78;79.05176;953.0229;;;;
2022/11/11 08:23:58;;;;;;;4.2;2.6;;;;;;;9.02;79.35938;953.0856;;;;
2022/11/11 08:26:23;;;;;;;5.7;2.7;;;;;;;8.95;79.71094;953.0222;;;;
2022/11/11 08:28:49;;;;;;;3;2.6;;;;;;;8.95;79.85645;952.9886;;;;
2022/11/11 08:31:14;;;;;;;3.9;2.8;;;;;;;9;79.82129;952.9777;;;;
2022/11/11 08:33:42;;;;;;;3.6;2.6;;;;;;;9.08;80.26855;952.9852;;;;
2022/11/11 08:36:09;;;;;;;3.9;2.5;;;;;;;9.29;78.54395;952.9668;;;;
2022/11/11 08:38:38;;;;;;;7.4;3.1;;;;;;;8.82;79.85645;952.9684;;;;
2022/11/11 08:41:03;;;;;;;4.9;2.3;;;;;;;9.04;80.43066;952.9384;;;;
2022/11/11 08:43:32;;;;;;;4.6;2.8;;;;;;;9.03;81.01074;952.9373;;;;
2022/11/11 08:45:56;;;;;;;5.6;3.3;;;;;;;8.96;81.28223;952.9081;;;;
2022/11/11 08:48:26;;;;;;;4.3;2.2;;;;;;;8.85;81.62598;952.9197;;;;
2022/11/11 08:50:54;;;;;;;3.8;2;;;;;;;9.02;81.43066;952.8972;;;;
2022/11/11 08:53:19;;;;;;;1.9;1.7;;;;;;;9.15;78.96387;952.8872;;;;
2022/11/11 08:55:45;;;;;;;4.2;2.1;;;;;;;9.28;79.31543;952.8429;;;;
2022/11/11 08:58:12;;;;;;;3.2;1.8;;;;;;;9.47;78.17676;952.8401;;;;
2022/11/11 09:00:38;;;;;;;2.5;1.6;;;;;;;9.66;78.2793;952.8281;;;;
2022/11/11 09:03:04;;;;;;;3.9;1.9;;;;;;;9.9;77.86816;952.7615;;;;
2022/11/11 09:05:34;;;;;;;3;1.7;;;;;;;10.02;75.1875;952.8298;;;;
2022/11/11 09:08:04;;;;;;;4.9;1.6;;;;;;;10.2;75.30859;952.8024;;;;
2022/11/11 09:10:28;;;;;;;3.6;1.5;;;;;;;10.14;73.82813;952.822;;;;
2022/11/11 09:12:53;;;;;;;2.4;1.7;;;;;;;10.33;74.45215;952.8527;;;;
2022/11/11 09:15:18;;;;;;;2.1;1.7;;;;;;;10.51;72.80469;952.8606;;;;
2022/11/11 09:17:43;;;;;;;2;1.2;;;;;;;10.76;73.51074;952.8141;;;;
2022/11/11 09:20:10;;;;;;;3.3;1.5;;;;;;;10.94;73.23242;952.8041;;;;
2022/11/11 09:22:35;;;;;;;3.3;1.7;;;;;;;11.06;70.69141;952.7985;;;;
2022/11/11 09:25:02;;;;;;;4;1.5;;;;;;;11.18;72.63379;952.7704;;;;
2022/11/11 09:27:27;;;;;;;2.6;1.6;;;;;;;11.39;72.77148;952.682;;;;
2022/11/11 09:29:54;;;;;;;2.1;1.3;;;;;;;11.5;72.50293;952.6569;;;;
2022/11/11 09:32:19;;;;;;;1.9;1;;;;;;;11.61;70.80469;952.7625;;;;
2022/11/11 09:34:46;;;;;;;1.3;0.8;;;;;;;11.67;68.2832;952.6707;;;;
2022/11/11 09:37:11;;;;;;;0.9;0.8;;;;;;;12;68.26855;952.6447;;;;
2022/11/11 09:39:37;;;;;;;1.2;1.1;;;;;;;12.12;67.65723;952.6602;;;;
2022/11/11 09:42:02;;;;;;;2.5;1.1;;;;;;;12.24;67.9043;952.649;;;;
2022/11/11 09:44:27;;;;;;;0.9;0.8;;;;;;;12.13;64.9541;952.7043;;;;
2022/11/11 09:46:53;;;;;;;0.8;0.8;;;;;;;12.05;64.81543;952.6958;;;;
2022/11/11 09:49:18;;;;;;;1.1;0.6;;;;;;;12.34;65.35156;952.6422;;;;
2022/11/11 09:51:43;;;;;;;0.8;0.6;;;;;;;12.49;65.3291;952.7797;;;;
2022/11/11 09:54:08;;;;;;;2.5;0.7;;;;;;;12.78;62.59473;952.7569;;;;
2022/11/11 09:56:34;;;;;;;1;0.7;;;;;;;12.92;61.62891;952.7692;;;;
2022/11/11 09:58:59;;;;;;;1.7;0.9;;;;;;;12.91;59.70703;952.6922;;;;
2022/11/11 10:01:24;;;;;;;1.2;0.8;;;;;;;13.23;60.78711;952.715;;;;
2022/11/11 10:03:49;;;;;;;1.1;1;;;;;;;13.44;61.77051;952.6669;;;;
2022/11/11 10:06:14;;;;;;;0.8;0.7;;;;;;;13.61;59.06836;952.6217;;;;
2022/11/11 10:08:39;;;;;;;2.6;1.1;;;;;;;13.7;57.64453;952.5503;;;;
2022/11/11 10:11:04;;;;;;;0.8;0.8;;;;;;;14.03;56.87988;952.5725;;;;
2022/11/11 10:13:29;;;;;;;1.2;0.7;;;;;;;14;55.7041;952.5293;;;;
2022/11/11 10:16:00;;;;;;;1.2;0.6;;;;;;;14.25;58.29297;952.481;;;;
2022/11/11 10:18:25;;;;;;;0.8;0.6;;;;;;;14.42;57.25586;952.4626;;;;
2022/11/11 10:20:51;;;;;;;0.4;0.4;;;;;;;14.49;54.64844;952.4071;;;;
2022/11/11 10:23:19;;;;;;;1.5;0.7;;;;;;;14.53;54.40039;952.4158;;;;
2022/11/11 10:25:44;;;;;;;0.9;0.7;;;;;;;14.23;53.68262;952.3563;;;;
2022/11/11 10:28:09;;;;;;;1.5;0.7;;;;;;;14.23;54.96094;952.3691;;;;
2022/11/11 10:30:34;;;;;;;1.4;1;;;;;;;14.29;55.41797;952.3574;;;;
2022/11/11 10:33:00;;;;;;;1.4;1.1;;;;;;;14.29;55.24609;952.3438;;;;
2022/11/11 10:35:26;;;;;;;0.8;0.8;;;;;;;14.43;55.0332;952.3264;;;;
2022/11/11 10:37:51;;;;;;;1.2;0.7;;;;;;;14.48;53.93359;952.3212;;;;
2022/11/11 10:40:16;;;;;;;1.4;1.1;;;;;;;14.44;54.37695;952.298;;;;
2022/11/11 10:42:45;;;;;;;1;0.9;;;;;;;14.4;53.84277;952.2302;;;;
2022/11/11 10:45:11;;;;;;;2.1;1.1;;;;;;;14.57;55.09668;952.2842;;;;
2022/11/11 10:47:38;;;;;;;3.3;1.4;;;;;;;14.61;55.42383;952.2584;;;;
2022/11/11 10:50:01;;;;;;;1.3;1.1;;;;;;;14.24;52.68262;952.2651;;;;
2022/11/11 10:52:26;;;;;;;2.9;1.1;;;;;;;14.4;54.24609;952.2422;;;;
2022/11/11 10:54:51;;;;;;;2.8;1;;;;;;;14.59;52.77148;952.1868;;;;
2022/11/11 10:57:17;;;;;;;1.9;0.7;;;;;;;14.44;53.44336;952.0439;;;;
2022/11/11 10:59:42;;;;;;;0.8;0.8;;;;;;;14.59;53.3125;952.1298;;;;
2022/11/11 11:02:07;;;;;;;2.3;0.9;;;;;;;14.63;54.37891;952.085;;;;
2022/11/11 11:04:32;;;;;;;2.9;0.8;;;;;;;14.84;54.24316;952.079;;;;
2022/11/11 11:06:57;;;;;;;0.8;0.8;;;;;;;14.88;53.1416;952.0556;;;;
2022/11/11 11:09:22;;;;;;;0.6;0.6;;;;;;;14.64;54.58594;951.9897;;;;
2022/11/11 11:11:47;;;;;;;2.5;0.9;;;;;;;14.81;54.08984;951.9043;;;;
2022/11/11 11:14:12;;;;;;;1.3;0.9;;;;;;;14.98;54.19043;951.9303;;;;
2022/11/11 11:16:37;;;;;;;4.4;1.3;;;;;;;15.27;54.18164;951.8586;;;;
2022/11/11 11:19:02;;;;;;;3.6;1.7;;;;;;;15.5;54.39453;951.8041;;;;
2022/11/11 11:21:27;;;;;;;1.6;1.3;;;;;;;15.63;53.4873;951.8649;;;;
2022/11/11 11:23:53;;;;;;;3.7;1.2;;;;;;;15.78;52.11816;951.8417;;;;
2022/11/11 11:26:18;;;;;;;1.3;1.1;;;;;;;15.99;50.97461;951.8427;;;;
2022/11/11 11:28:43;;;;;;;2.3;1.1;;;;;;;16.41;50.56152;951.8352;;;;
2022/11/11 11:31:09;;;;;;;1.4;0.8;;;;;;;16.94;46.01074;951.8035;;;;
2022/11/11 11:33:34;;;;;;;1.1;0.6;;;;;;;18.88;41.78027;951.7804;;;;
2022/11/11 11:35:59;;;;;;;1.1;0.6;;;;;;;21.17;39.44727;951.6707;;;;
2022/11/11 11:38:25;;;;;;;1;0.9;;;;;;;23.86;34.91895;951.7089;;;;
2022/11/11 11:40:50;;;;;;;0.7;0.7;;;;;;;25.23;31.37891;951.6794;;;;
2022/11/11 11:43:15;;;;;;;1.1;0.5;;;;;;;25.43;31.28711;951.6705;;;;
2022/11/11 11:45:40;;;;;;;1.5;0.7;;;;;;;26.3;29.90332;951.7368;;;;
2022/11/11 11:48:06;;;;;;;0.8;0.6;;;;;;;27.59;28.18555;951.6962;;;;
2022/11/11 11:50:31;;;;;;;1.8;0.7;;;;;;;28.03;26.24219;951.6386;;;;
2022/11/11 11:52:56;;;;;;;0.4;0.4;;;;;;;29.36;24.97266;951.6092;;;;
2022/11/11 11:55:22;;;;;;;1;0.5;;;;;;;30.3;24.64258;951.6301;;;;
2022/11/11 11:57:47;;;;;;;0.6;0.4;;;;;;;30.97;23.43555;951.6397;;;;
2022/11/11 12:00:12;;;;;;;1;0.9;;;;;;;32.21;22.02539;951.6083;;;;
2022/11/11 12:02:38;;;;;;;1;0.4;;;;;;;32.31;21.22656;951.5941;;;;
2022/11/11 12:05:14;;;;;;;2;0.6;;;;;;;33.62;20.89063;951.5619;;;;
2022/11/11 12:07:39;;;;;;;0.9;0.7;;;;;;;33.3;20.75586;951.5281;;;;
2022/11/11 12:10:08;;;;;;;2.7;0.7;;;;;;;33.79;19.93555;951.5164;;;;
2022/11/11 12:12:35;;;;;;;0.8;0.6;;;;;;;33.77;19.79102;951.5047;;;;
2022/11/11 12:15:01;;;;;;;0.8;0.6;;;;;;;33.9;19.88086;951.452;;;;
2022/11/11 12:17:25;;;;;;;0.8;0.5;;;;;;;34.08;19.5752;951.4489;;;;
2022/11/11 12:19:51;;;;;;;0.7;0.7;;;;;;;33.95;19.1123;951.4432;;;;
2022/11/11 12:22:16;;;;;;;1.6;0.5;;;;;;;34.17;18.73633;951.4531;;;;
2022/11/11 12:24:41;;;;;;;1;0.5;;;;;;;33.97;19.0293;951.4072;;;;
2022/11/11 12:27:06;;;;;;;1.3;0.5;;;;;;;33.94;19.75;951.37;;;;
2022/11/11 12:29:31;;;;;;;1.3;0.4;;;;;;;33.91;19.33984;951.3044;;;;
2022/11/11 12:31:56;;;;;;;0.5;0.5;;;;;;;33.36;19.48438;951.2981;;;;
2022/11/11 12:34:21;;;;;;;0.3;0.3;;;;;;;33.13;18.80176;951.2929;;;;
2022/11/11 12:36:47;;;;;;;0.6;0.6;;;;;;;32.23;22.6377;951.3088;;;;
2022/11/11 12:39:12;;;;;;;0.5;0.5;;;;;;;31.56;22.66406;951.3071;;;;
2022/11/11 12:41:37;;;;;;;0.6;0.5;;;;;;;31.38;23.10938;951.3462;;;;
2022/11/11 12:44:06;;;;;;;0.5;0.5;;;;;;;31.1;23.74121;951.3423;;;;
2022/11/11 12:46:31;;;;;;;0.5;0.5;;;;;;;30.52;24.36816;951.3448;;;;
2022/11/11 12:48:56;;;;;;;1.3;0.8;;;;;;;28.93;26.78223;951.3223;;;;
2022/11/11 12:51:21;;;;;;;0.7;0.7;;;;;;;27.73;28.75293;951.2997;;;;
2022/11/11 12:53:46;;;;;;;0.9;0.9;;;;;;;27.99;28.59082;951.3419;;;;
2022/11/11 12:56:13;;;;;;;1.2;1.1;;;;;;;28.87;26.8623;951.3986;;;;
2022/11/11 12:58:36;;;;;;;1.7;1.2;;;;;;;28.09;28.38379;951.3753;;;;
2022/11/11 13:01:52;;;;;;;1.6;1.5;;;;;;;26.57;29.93359;951.4652;;;;
2022/11/11 13:04:17;;;;;;;2.8;2.3;;;;;;;26.79;29.8418;951.4626;;;;
2022/11/11 13:06:42;;;;;;;3.3;2.7;;;;;;;27.03;28.68359;951.5552;;;;
2022/11/11 13:09:07;;;;;;;4;2.3;;;;;;;27.03;29.27637;951.5779;;;;
2022/11/11 13:11:32;;;;;;;2.7;2.1;;;;;;;25.9;31.25977;951.5914;;;;
2022/11/11 13:13:58;;;;;;;5.4;2.4;;;;;;;26.27;31.36914;951.5499;;;;
2022/11/11 13:16:26;;;;;;;2.6;2;;;;;;;26.77;30.75195;951.5581;;;;
2022/11/11 13:18:55;;;;;;;2.9;2;;;;;;;28.16;28.83984;951.5706;;;;
2022/11/11 13:21:21;;;;;;;2;1.8;;;;;;;28.66;27.47949;951.5207;;;;
2022/11/11 13:23:46;;;;;;;1.8;1.6;;;;;;;29.92;26.4707;951.4922;;;;
2022/11/11 13:26:11;;;;;;;1.8;1.6;;;;;;;30.76;25.09766;951.5428;;;;
2022/11/11 13:28:38;;;;;;;2.4;1.8;;;;;;;30.91;25.25;951.5513;;;;
2022/11/11 13:31:03;;;;;;;2.1;1.7;;;;;;;32.03;24.14941;951.4863;;;;
2022/11/11 13:33:28;;;;;;;2.4;1.5;;;;;;;32.23;23.42871;951.524;;;;
2022/11/11 13:35:55;;;;;;;2.7;1.6;;;;;;;32.3;23.24023;951.5831;;;;
2022/11/11 13:38:20;;;;;;;2.2;1.5;;;;;;;31.61;24.4502;951.714;;;;
2022/11/11 13:40:47;;;;;;;1.6;1.5;;;;;;;29.64;26.08496;951.7271;;;;
2022/11/11 13:43:12;;;;;;;2.1;1.6;;;;;;;27.49;28.39258;951.7244;;;;
2022/11/11 13:45:37;;;;;;;1.4;1.3;;;;;;;25.73;31.48438;951.6833;;;;
2022/11/11 13:48:03;;;;;;;1.5;1.3;;;;;;;25.71;31.75586;951.6805;;;;
2022/11/11 13:50:34;;;;;;;1.3;1.2;;;;;;;25.43;32.46777;951.6451;;;;
2022/11/11 13:53:00;;;;;;;1.5;1.1;;;;;;;24.53;34.13477;951.6725;;;;
2022/11/11 13:55:28;;;;;;;1.8;1.4;;;;;;;23.35;36.56055;951.733;;;;
2022/11/11 13:57:53;;;;;;;1.9;1.2;;;;;;;22.92;38.11035;951.7294;;;;
2022/11/11 14:00:19;;;;;;;2.9;1.4;;;;;;;23.08;36.98438;951.7717;;;;
2022/11/11 14:02:45;;;;;;;2.2;1.4;;;;;;;22.76;37.59277;951.7413;;;;
2022/11/11 14:05:10;;;;;;;2.2;1.6;;;;;;;22.37;38.04102;951.7425;;;;
2022/11/11 14:07:36;;;;;;;2.7;1.4;;;;;;;21.86;38.58301;951.682;;;;
2022/11/11 14:10:01;;;;;;;1.6;1.5;;;;;;;21.46;39.4375;951.6013;;;;
2022/11/11 14:12:26;;;;;;;2.1;1.7;;;;;;;20.69;40.31543;951.6356;;;;
2022/11/11 14:14:55;;;;;;;3;1.9;;;;;;;20.12;41.76855;951.5632;;;;
2022/11/11 14:17:21;;;;;;;2;1.7;;;;;;;19.7;42.77832;951.6328;;;;
2022/11/11 14:19:46;;;;;;;2.4;1.7;;;;;;;19.32;43.68555;951.6978;;;;
2022/11/11 14:22:12;;;;;;;3;2.1;;;;;;;18.94;45.09082;951.7296;;;;
2022/11/11 14:24:37;;;;;;;2.4;1.8;;;;;;;18.65;46.66699;951.7568;;;;
2022/11/11 14:27:02;;;;;;;3.1;2.4;;;;;;;18.61;46.42969;951.7231;;;;
2022/11/11 14:29:27;;;;;;;3.7;2.5;;;;;;;18.53;46.06152;951.803;;;;
2022/11/11 14:31:55;;;;;;;5.3;3;;;;;;;18.3;47.4668;951.7411;;;;
2022/11/11 14:34:23;;;;;;;3.9;2.8;;;;;;;17.96;48.58008;951.7947;;;;
2022/11/11 14:36:51;;;;;;;2.9;2.4;;;;;;;17.61;50.09668;951.7983;;;;
2022/11/11 14:39:16;;;;;;;4.9;2.7;;;;;;;17.25;51.78418;951.8084;;;;
2022/11/11 14:41:42;;;;;;;4.8;2.4;;;;;;;16.92;52.38086;951.8428;;;;
2022/11/11 14:44:07;;;;;;;4.6;2.6;;;;;;;16.64;53.2627;951.8586;;;;
2022/11/11 14:46:33;;;;;;;5;2.7;;;;;;;16.39;55.14063;951.8655;;;;
2022/11/11 14:48:58;;;;;;;5.2;3;;;;;;;16.03;56.87695;951.8322;;;;
2022/11/11 14:51:23;;;;;;;4.7;3.2;;;;;;;15.74;57.84375;951.9207;;;;
2022/11/11 14:53:52;;;;;;;4.4;3.1;;;;;;;15.59;58.30859;951.9436;;;;
2022/11/11 14:56:18;;;;;;;6.5;4.1;;;;;;;15.42;58.94531;951.9705;;;;
2022/11/11 14:58:43;;;;;;;15.1;9.5;;;;;;;15.28;59.60645;951.9575;;;;
2022/11/11 15:01:08;;;;;;;10.9;7.1;;;;;;;15.15;60.47754;952.0829;;;;
2022/11/11 15:03:35;;;;;;;7.8;5.2;;;;;;;15.01;61.05859;952.1057;;;;
2022/11/11 15:06:00;;;;;;;8.3;4.2;;;;;;;14.88;61.5127;952.1325;;;;
2022/11/11 15:08:25;;;;;;;8.3;4.9;;;;;;;14.65;62.74805;952.0364;;;;
2022/11/11 15:10:50;;;;;;;14.1;9.5;;;;;;;14.44;63.8584;952.101;;;;
2022/11/11 15:13:16;;;;;;;8.3;4.7;;;;;;;14.29;64.78125;952.1186;;;;
2022/11/11 15:15:44;;;;;;;5.2;3.8;;;;;;;14.18;65.34082;952.1204;;;;
2022/11/11 15:18:09;;;;;;;4.3;3.2;;;;;;;14.02;65.66211;952.0966;;;;
2022/11/11 15:20:35;;;;;;;5.2;3.2;;;;;;;13.79;66.6748;952.1213;;;;
2022/11/11 15:23:01;;;;;;;7;3.6;;;;;;;13.72;66.73242;952.0768;;;;
2022/11/11 15:25:27;;;;;;;4.9;3.4;;;;;;;13.7;67.0625;952.0867;;;;
2022/11/11 15:27:52;;;;;;;5.6;3.4;;;;;;;13.62;67.0166;952.05;;;;
2022/11/11 15:30:20;;;;;;;4.8;3.3;;;;;;;13.59;67.26367;952.0267;;;;
2022/11/11 15:32:51;;;;;;;5.4;3.7;;;;;;;13.54;67.625;952.084;;;;
2022/11/11 15:35:41;;;;;;;7.8;3.8;;;;;;;13.48;68.0293;952.0836;;;;
2022/11/11 15:38:06;;;;;;;6.6;3.9;;;;;;;13.3;68.87598;952.1181;;;;
2022/11/11 15:40:33;;;;;;;7;3.7;;;;;;;13.18;69.00488;952.1064;;;;
2022/11/11 15:43:04;;;;;;;7;4;;;;;;;13.05;69.83496;952.1857;;;;
2022/11/11 15:45:33;;;;;;;8.3;4.3;;;;;;;12.91;70.31641;952.3005;;;;
2022/11/11 15:47:59;;;;;;;6.8;4.5;;;;;;;12.69;71.39258;952.3357;;;;
2022/11/11 15:50:23;;;;;;;5.3;3.6;;;;;;;12.47;72.32129;952.3798;;;;
2022/11/11 15:54:07;;;;;;;5.9;3.5;;;;;;;12.34;71.6123;952.4817;;;;
2022/11/11 15:56:28;;;;;;;4.8;3.3;;;;;;;11.69;71.90527;952.4942;;;;
2022/11/11 15:58:53;;;;;;;4.8;3;;;;;;;11.43;74.10449;952.4467;;;;
2022/11/11 16:01:17;;;;;;;7.6;3.6;;;;;;;11.29;75.70508;952.4726;;;;
2022/11/11 16:03:44;;;;;;;7.7;3.1;;;;;;;11.14;76.82324;952.5037;;;;
2022/11/11 16:06:09;;;;;;;5.4;2.4;;;;;;;11.1;76.75879;952.5839;;;;
2022/11/11 16:08:36;;;;;;;4.8;2.8;;;;;;;11.09;76.6084;952.6099;;;;
2022/11/11 16:11:01;;;;;;;6.4;3.9;;;;;;;11.04;78.34766;952.6809;;;;
2022/11/11 16:13:30;;;;;;;4;3.2;;;;;;;11.04;78.02734;952.7111;;;;
2022/11/11 16:15:59;;;;;;;12.4;7.4;;;;;;;10.99;78.41895;952.7477;;;;
2022/11/11 16:18:24;;;;;;;49.8;26.5;;;;;;;10.93;78.96777;952.7179;;;;
2022/11/11 16:20:49;;;;;;;25.2;14.8;;;;;;;10.89;79.14258;952.7372;;;;
2022/11/11 16:23:14;;;;;;;12.3;9.2;;;;;;;10.88;79.14258;952.7084;;;;
2022/11/11 16:25:39;;;;;;;12.1;8.9;;;;;;;10.92;78.65625;952.7341;;;;
2022/11/11 16:28:06;;;;;;;117.3;67.9;;;;;;;10.9;77.80664;952.736;;;;
2022/11/11 16:30:31;;;;;;;48.1;27.7;;;;;;;10.94;77.56348;952.7748;;;;
2022/11/11 16:32:57;;;;;;;53;30.9;;;;;;;10.92;77.97168;952.7383;;;;
2022/11/11 16:35:21;;;;;;;53.9;30.8;;;;;;;10.86;77.82324;952.7332;;;;
2022/11/11 16:37:47;;;;;;;239.5;138;;;;;;;10.77;78.5957;952.8145;;;;
2022/11/11 16:40:14;;;;;;;29.6;19.3;;;;;;;10.55;80.16406;952.7933;;;;
2022/11/11 16:42:44;;;;;;;12.8;9.1;;;;;;;10.43;80.72656;952.7879;;;;
2022/11/11 16:45:13;;;;;;;12;8.2;;;;;;;10.23;81.91992;952.7857;;;;
2022/11/11 16:47:39;;;;;;;13.7;8.9;;;;;;;10.11;82.81055;952.7427;;;;
2022/11/11 16:50:04;;;;;;;15.8;10.3;;;;;;;10.06;83.42676;952.776;;;;